Meteo Giornale » Osservazioni meteo Malaysia » Kota Bharu
ore: 04:00 - Osservazioni Meteo Kota Bharu
Lat. 6° 10' N Lon. 102° 17' E Alt. 5 metri s.l.m.
26 °C
Poco Nuvoloso
Temp. 24 Ore
25 °C
33 °C
Nord
5.5 Km/h
Dew point 26 °C
Umidità 100 %
Visibilità 6 Km
Il sole sorge alle ore 07:03
Il sole tramonta alle ore 19:18
| Data e Ora | Cielo e Fenomeni | T °C | DP °C | Um. % | Pres. hPa | Vis. km | Vento km/h | |
|---|---|---|---|---|---|---|---|---|
| Oggi h: 04:00 | Poco Nuvoloso | 26 | 26 | 100 | 1010 | 6 | N 5.5 | |
| Oggi h: 03:00 | Poco Nuvoloso | 26 | 26 | 100 | 1010 | 6 | N 5.5 | |
| Oggi h: 02:00 | Poco Nuvoloso | 27 | 26 | 94 | 1011 | 10 | N 5.5 | |
| Oggi h: 01:00 | Poco Nuvoloso | 27 | 26 | 94 | 1011 | 10 | N 3.7 | |
| Oggi h: 00:00 | Poco Nuvoloso | 27 | 26 | 94 | 1011 | 10 | N 0 | |
| Ieri h: 23:00 | Temporale | 27 | 26 | 94 | 1011 | 10 | E 9.3 | |
| Ieri h: 22:00 | Temporale | 27 | 26 | 94 | 1011 | 10 | NO 13 | |
| Ieri h: 21:00 | Pioggia | 27 | 26 | 94 | 1010 | 10 | N 18.5 | |
| Ieri h: 20:00 | Poco Nuvoloso | 29 | 25 | 79 | 1009 | 10 | E 7.4 | |
| Ieri h: 19:00 | Poco Nuvoloso | 30 | 25 | 74 | 1008 | 10 | E 13 | |
| Ieri h: 18:00 | Poco Nuvoloso | 31 | 25 | 70 | 1008 | 10 | E 14.8 | |
| Ieri h: 17:00 | Poco Nuvoloso | 31 | 25 | 70 | 1008 | 10 | E 13 | |
| Ieri h: 16:00 | Poco Nuvoloso | 32 | 24 | 62 | 1008 | 10 | E/NE 16.7 | |
| Ieri h: 15:00 | Poco Nuvoloso | 32 | 24 | 62 | 1009 | 10 | NE 13 | |
| Ieri h: 14:00 | Poco Nuvoloso | 31 | 25 | 70 | 1009 | 10 | NE 13 | |
| Ieri h: 13:00 | Poco Nuvoloso | 33 | 26 | 66 | 1010 | 10 | E/NE 11.1 | |
| Ieri h: 12:00 | Poco Nuvoloso | 32 | 24 | 62 | 1011 | 10 | N 5.5 | |
| Ieri h: 11:00 | Poco Nuvoloso | 31 | 26 | 74 | 1012 | 10 | SO 9.3 | |
| Ieri h: 10:00 | Poco Nuvoloso | 30 | 25 | 74 | 1012 | 10 | N 7.4 | |
| Ieri h: 09:00 | Poco Nuvoloso | 28 | 24 | 78 | 1011 | 10 | SO 11.1 | |
| Ieri h: 08:00 | Poco Nuvoloso | 25 | 24 | 94 | 1010 | 10 | SO 7.4 | |
| Ieri h: 07:00 | Poco Nuvoloso | 25 | 24 | 94 | 1010 | 10 | N 5.5 | |
| Ieri h: 06:00 | Poco Nuvoloso | 25 | 24 | 94 | 1010 | 9 | S/SO 7.4 | |
| Ieri h: 05:00 | Poco Nuvoloso | 25 | 24 | 94 | 1010 | 9 | SO 7.4 | |



